createdAt,value
2022-09-16T00:00:34.534Z,10.34
2022-09-16T00:03:35.997Z,10.48
2022-09-16T00:06:37.414Z,10.61
2022-09-16T00:09:38.926Z,10.65
2022-09-16T00:12:41.152Z,10.66
2022-09-16T00:15:44.418Z,10.62
2022-09-16T00:18:45.902Z,10.53
2022-09-16T00:21:48.269Z,10.48
2022-09-16T00:24:49.749Z,10.35
2022-09-16T00:27:51.148Z,10.21
2022-09-16T00:30:52.654Z,10.11
2022-09-16T00:33:54.048Z,10.08
2022-09-16T00:36:55.458Z,10.10
2022-09-16T00:39:56.958Z,10.18
2022-09-16T00:42:58.584Z,10.30
2022-09-16T00:46:04.458Z,10.84
2022-09-16T00:49:25.275Z,11.07
2022-09-16T00:52:29.330Z,11.06
2022-09-16T00:55:33.669Z,11.12
2022-09-16T00:58:47.219Z,11.11
2022-09-16T01:01:49.227Z,11.02
2022-09-16T01:05:18.718Z,10.93
2022-09-16T01:08:20.114Z,10.90
2022-09-16T01:11:21.550Z,10.76
2022-09-16T01:14:26.514Z,10.65
2022-09-16T01:18:00.461Z,10.52
2022-09-16T01:21:28.140Z,10.27
2022-09-16T01:24:59.904Z,10.15
2022-09-16T01:28:22.828Z,10.06
2022-09-16T01:31:48.280Z,10.11
2022-09-16T01:35:11.013Z,10.30
2022-09-16T01:38:47.293Z,10.48
2022-09-16T01:42:36.819Z,10.58
2022-09-16T01:45:47.656Z,10.63
2022-09-16T01:49:01.820Z,10.74
2022-09-16T01:52:15.157Z,10.77
2022-09-16T01:55:30.048Z,10.80
2022-09-16T01:58:47.334Z,10.70
2022-09-16T02:01:54.958Z,10.60
2022-09-16T02:05:00.299Z,10.63
2022-09-16T02:08:20.685Z,10.64
2022-09-16T02:11:23.660Z,10.68
2022-09-16T02:14:29.926Z,10.78
2022-09-16T02:17:35.795Z,10.86
2022-09-16T02:20:45.108Z,10.81
2022-09-16T02:23:51.431Z,10.83
2022-09-16T02:26:58.530Z,10.82
2022-09-16T02:30:05.187Z,10.81
2022-09-16T02:33:10.093Z,10.77
2022-09-16T02:36:17.450Z,10.75
2022-09-16T02:39:27.846Z,10.71
2022-09-16T02:42:30.079Z,10.64
2022-09-16T02:46:03.973Z,10.54
2022-09-16T02:49:17.010Z,10.49
2022-09-16T02:52:51.056Z,10.52
2022-09-16T02:56:15.639Z,10.53
2022-09-16T02:59:18.005Z,10.57
2022-09-16T03:02:19.603Z,10.59
2022-09-16T03:05:21.021Z,10.67
2022-09-16T03:08:22.459Z,10.89
2022-09-16T03:11:40.436Z,10.74
2022-09-16T03:15:06.952Z,10.48
2022-09-16T03:18:24.354Z,10.26
2022-09-16T03:21:37.857Z,10.15
2022-09-16T03:25:11.424Z,10.04
2022-09-16T03:28:24.447Z,9.98
2022-09-16T03:31:31.261Z,9.96
2022-09-16T03:34:41.969Z,9.90
2022-09-16T03:37:45.516Z,9.79
2022-09-16T03:40:48.135Z,9.68
2022-09-16T03:44:01.557Z,9.55
2022-09-16T03:47:08.771Z,9.49
2022-09-16T03:50:10.467Z,9.63
2022-09-16T03:53:11.852Z,9.79
2022-09-16T03:56:13.274Z,9.92
2022-09-16T03:59:14.731Z,9.98
2022-09-16T04:02:16.137Z,9.96
2022-09-16T04:05:17.562Z,9.95
2022-09-16T04:08:19.143Z,9.93
2022-09-16T04:11:20.569Z,9.90
2022-09-16T04:14:22.131Z,9.80
2022-09-16T04:17:24.114Z,9.68
2022-09-16T04:20:25.526Z,9.55
2022-09-16T04:23:28.551Z,9.49
2022-09-16T04:26:30.017Z,9.59
2022-09-16T04:29:31.410Z,9.74
2022-09-16T04:32:32.797Z,9.82
2022-09-16T04:35:34.179Z,9.84
2022-09-16T04:38:36.632Z,9.83
2022-09-16T04:41:38.448Z,9.90
2022-09-16T04:44:39.838Z,9.91
2022-09-16T04:47:41.238Z,9.87
2022-09-16T04:50:42.624Z,9.82
2022-09-16T04:53:45.049Z,9.78
2022-09-16T04:56:46.539Z,9.73
2022-09-16T04:59:47.931Z,9.73
2022-09-16T05:02:49.306Z,9.71
2022-09-16T05:05:50.703Z,9.69
2022-09-16T05:08:53.979Z,9.74
2022-09-16T05:11:55.442Z,9.74
2022-09-16T05:14:56.830Z,9.61
2022-09-16T05:17:58.211Z,9.39
2022-09-16T05:21:01.149Z,9.32
2022-09-16T05:24:04.538Z,9.13
2022-09-16T05:27:06.022Z,9.05
2022-09-16T05:30:08.090Z,9.10
2022-09-16T05:33:09.650Z,9.03
2022-09-16T05:36:16.472Z,9.03
2022-09-16T05:39:25.925Z,8.94
2022-09-16T05:42:27.578Z,8.85
2022-09-16T05:45:32.416Z,8.79
2022-09-16T05:48:35.285Z,8.81
2022-09-16T05:51:38.108Z,8.95
2022-09-16T05:54:39.513Z,8.97
2022-09-16T05:57:40.910Z,9.03
2022-09-16T06:00:42.316Z,9.18
2022-09-16T06:03:45.722Z,9.27
2022-09-16T06:06:47.219Z,9.44
2022-09-16T06:09:48.727Z,9.87
2022-09-16T06:12:50.128Z,10.42
2022-09-16T06:15:53.129Z,10.98
2022-09-16T06:18:55.658Z,11.50
2022-09-16T06:21:57.149Z,11.72
2022-09-16T06:24:58.536Z,11.62
2022-09-16T06:27:59.929Z,11.45
2022-09-16T06:31:03.547Z,11.23
2022-09-16T06:34:05.785Z,11.04
2022-09-16T06:37:07.179Z,10.97
2022-09-16T06:40:09.093Z,10.98
2022-09-16T06:43:10.520Z,10.90
2022-09-16T06:46:14.554Z,10.79
2022-09-16T06:49:15.965Z,10.71
2022-09-16T06:52:17.351Z,10.63
2022-09-16T06:55:18.751Z,10.63
2022-09-16T06:58:20.173Z,10.93
2022-09-16T07:01:24.251Z,11.59
2022-09-16T07:04:25.649Z,12.71
2022-09-16T07:07:30.059Z,13.93
2022-09-16T07:10:31.469Z,15.03
2022-09-16T07:13:33.571Z,15.43
2022-09-16T07:16:35.361Z,15.79
2022-09-16T07:19:36.773Z,16.46
2022-09-16T07:22:38.264Z,17.26
2022-09-16T07:25:39.640Z,18.23
2022-09-16T07:28:42.616Z,18.70
2022-09-16T07:31:44.288Z,19.30
2022-09-16T07:34:45.732Z,18.86
2022-09-16T07:37:47.159Z,20.18
2022-09-16T07:40:48.549Z,19.73
2022-09-16T07:43:50.325Z,19.40
2022-09-16T07:46:51.771Z,19.08
2022-09-16T07:49:53.192Z,18.82
2022-09-16T07:52:55.639Z,17.74
2022-09-16T07:56:02.123Z,19.30
2022-09-16T07:59:06.092Z,16.12
2022-09-16T08:02:09.320Z,13.14
2022-09-16T08:05:10.815Z,12.01
2022-09-16T08:08:12.222Z,11.70
2022-09-16T08:11:14.820Z,11.78
2022-09-16T08:14:16.219Z,12.06
2022-09-16T08:17:17.622Z,12.82
2022-09-16T08:20:19.005Z,15.01
2022-09-16T08:23:20.431Z,15.49
2022-09-16T08:26:22.302Z,14.36
2022-09-16T08:29:23.852Z,13.43
2022-09-16T08:32:25.231Z,12.89
2022-09-16T08:35:26.633Z,12.71
2022-09-16T08:38:28.741Z,12.53
2022-09-16T08:41:36.236Z,12.44
2022-09-16T08:44:49.648Z,12.28
2022-09-16T08:48:09.692Z,12.13
2022-09-16T08:51:17.354Z,12.36
2022-09-16T08:54:34.783Z,12.91
2022-09-16T08:57:42.808Z,13.40
2022-09-16T09:00:47.705Z,14.18
2022-09-16T09:03:49.296Z,14.10
2022-09-16T09:07:00.122Z,13.36
2022-09-16T09:10:31.524Z,12.92
2022-09-16T09:13:56.470Z,12.73
2022-09-16T09:17:15.439Z,12.59
2022-09-16T09:20:24.476Z,12.72
2022-09-16T09:23:57.783Z,13.28
2022-09-16T09:27:12.093Z,13.63
2022-09-16T09:30:20.706Z,14.77
2022-09-16T09:37:05.956Z,15.72
2022-09-16T09:40:21.411Z,15.55
2022-09-16T09:43:29.911Z,15.13
2022-09-16T09:46:41.914Z,14.57
2022-09-16T09:49:49.801Z,14.49
2022-09-16T09:53:13.524Z,14.18
2022-09-16T09:56:42.428Z,14.83
2022-09-16T10:00:02.045Z,15.79
2022-09-16T10:03:15.851Z,15.50
2022-09-16T10:06:23.581Z,15.23
2022-09-16T10:09:25.469Z,15.18
2022-09-16T10:12:29.075Z,15.17
2022-09-16T10:15:30.843Z,14.01
2022-09-16T10:18:32.397Z,13.10
2022-09-16T10:21:44.029Z,13.09
2022-09-16T10:24:54.238Z,13.33
2022-09-16T10:27:58.121Z,13.51
2022-09-16T10:31:01.008Z,13.56
2022-09-16T10:34:05.269Z,13.75
2022-09-16T10:37:09.662Z,13.80
2022-09-16T10:40:16.827Z,13.73
2022-09-16T10:43:18.927Z,14.97
2022-09-16T10:46:20.971Z,15.40
2022-09-16T10:49:31.853Z,16.03
2022-09-16T10:52:45.132Z,16.49
2022-09-16T10:55:57.161Z,15.13
2022-09-16T10:59:13.058Z,12.74
2022-09-16T11:02:48.199Z,11.90
2022-09-16T11:06:08.281Z,11.87
2022-09-16T11:09:56.246Z,12.16
2022-09-16T11:13:29.740Z,12.45
2022-09-16T11:16:42.050Z,12.99
2022-09-16T11:19:54.010Z,13.16
2022-09-16T11:23:21.783Z,13.46
2022-09-16T11:26:26.273Z,14.57
2022-09-16T11:29:49.466Z,14.25
2022-09-16T11:36:46.415Z,14.34
2022-09-16T11:40:05.371Z,14.05
2022-09-16T11:43:20.760Z,14.11
2022-09-16T11:46:28.268Z,14.19
2022-09-16T11:49:29.664Z,13.72
2022-09-16T11:53:09.300Z,13.17
2022-09-16T11:56:20.203Z,12.83
2022-09-16T11:59:29.388Z,12.57
2022-09-16T12:02:40.342Z,12.34
2022-09-16T12:05:45.916Z,12.42
2022-09-16T12:08:56.019Z,12.57
2022-09-16T12:12:09.553Z,12.15
2022-09-16T12:15:23.610Z,11.81
2022-09-16T12:18:32.702Z,11.73
2022-09-16T12:21:36.300Z,12.07
2022-09-16T12:24:46.928Z,12.55
2022-09-16T12:28:01.449Z,13.39
2022-09-16T12:31:23.951Z,13.58
2022-09-16T12:34:34.125Z,13.10
2022-09-16T12:37:49.282Z,12.86
2022-09-16T12:41:30.097Z,12.50
2022-09-16T12:44:35.094Z,12.41
2022-09-16T12:48:05.053Z,12.59
2022-09-16T12:51:21.802Z,12.92
2022-09-16T12:55:09.057Z,12.93
2022-09-16T12:58:39.109Z,13.11
2022-09-16T13:01:54.647Z,12.97
2022-09-16T13:05:09.629Z,12.90
2022-09-16T13:08:22.988Z,13.03
2022-09-16T13:14:53.935Z,12.97
2022-09-16T13:17:56.171Z,12.94
2022-09-16T13:21:00.516Z,12.97
2022-09-16T13:24:20.375Z,12.86
2022-09-16T13:27:30.304Z,12.70
2022-09-16T13:30:33.481Z,12.99
2022-09-16T13:33:34.926Z,13.58
2022-09-16T13:36:36.398Z,13.34
2022-09-16T13:39:37.821Z,12.75
2022-09-16T13:42:39.267Z,12.56
2022-09-16T13:45:44.992Z,12.54
2022-09-16T13:49:09.804Z,12.57
2022-09-16T13:52:15.949Z,12.49
2022-09-16T13:55:22.276Z,12.74
2022-09-16T13:58:30.745Z,13.59
2022-09-16T14:01:59.567Z,14.34
2022-09-16T14:05:04.710Z,14.43
2022-09-16T14:08:24.733Z,14.73
2022-09-16T14:11:26.095Z,14.96
2022-09-16T14:14:47.459Z,15.09
2022-09-16T14:17:54.500Z,15.34
2022-09-16T14:21:16.739Z,15.52
2022-09-16T14:24:19.768Z,15.09
2022-09-16T14:27:32.929Z,14.52
2022-09-16T14:30:34.353Z,14.09
2022-09-16T14:33:43.254Z,13.78
2022-09-16T14:36:46.668Z,13.82
2022-09-16T14:39:53.181Z,13.78
2022-09-16T14:43:08.089Z,13.71
2022-09-16T14:46:09.527Z,13.61
2022-09-16T14:49:13.441Z,13.88
2022-09-16T14:52:24.124Z,14.58
2022-09-16T14:55:34.630Z,15.41
2022-09-16T14:58:36.518Z,15.66
2022-09-16T15:01:40.021Z,15.64
2022-09-16T15:04:52.049Z,15.17
2022-09-16T15:08:14.239Z,14.38
2022-09-16T15:11:43.598Z,14.28
2022-09-16T15:14:42.717Z,14.61
2022-09-16T15:17:44.327Z,14.77
2022-09-16T15:20:52.193Z,14.87
2022-09-16T15:23:58.225Z,14.77
2022-09-16T15:27:00.708Z,15.02
2022-09-16T15:30:02.228Z,15.09
2022-09-16T15:33:03.740Z,14.60
2022-09-16T15:36:06.477Z,14.48
2022-09-16T15:39:27.837Z,15.00
2022-09-16T15:42:29.358Z,15.11
2022-09-16T15:45:31.220Z,14.94
2022-09-16T15:48:36.109Z,14.96
2022-09-16T15:51:47.806Z,14.82
2022-09-16T15:54:54.195Z,14.71
2022-09-16T15:58:03.053Z,14.59
2022-09-16T16:01:10.596Z,14.52
2022-09-16T16:04:13.165Z,14.73
2022-09-16T16:07:45.413Z,14.93
2022-09-16T16:11:06.354Z,14.74
2022-09-16T16:14:08.019Z,14.16
2022-09-16T16:17:18.756Z,13.65
2022-09-16T16:20:21.184Z,13.35
2022-09-16T16:23:22.594Z,13.21
2022-09-16T16:26:23.991Z,13.23
2022-09-16T16:29:25.647Z,13.13
2022-09-16T16:32:27.277Z,13.36
2022-09-16T16:35:28.702Z,13.54
2022-09-16T16:38:30.107Z,13.61
2022-09-16T16:41:31.514Z,13.56
2022-09-16T16:44:33.812Z,13.47
2022-09-16T16:47:35.323Z,13.33
2022-09-16T16:50:36.725Z,13.32
2022-09-16T16:53:38.840Z,13.26
2022-09-16T16:56:40.276Z,13.17
2022-09-16T16:59:41.714Z,13.12
2022-09-16T17:02:43.283Z,13.11
2022-09-16T17:05:44.697Z,12.53
2022-09-16T17:08:46.105Z,12.12
2022-09-16T17:11:56.127Z,11.95
2022-09-16T17:14:57.538Z,11.85
2022-09-16T17:17:58.981Z,11.72
2022-09-16T17:21:12.855Z,11.82
2022-09-16T17:24:14.263Z,11.82
2022-09-16T17:27:15.693Z,11.79
2022-09-16T17:30:17.168Z,11.74
2022-09-16T17:33:18.686Z,11.80
2022-09-16T17:36:21.040Z,11.79
2022-09-16T17:39:22.461Z,11.87
2022-09-16T17:42:23.910Z,11.67
2022-09-16T17:45:25.366Z,11.63
2022-09-16T17:48:27.300Z,11.65
2022-09-16T17:51:28.734Z,11.53
2022-09-16T17:54:30.126Z,11.46
2022-09-16T17:57:33.325Z,11.43
2022-09-16T18:00:36.937Z,11.48
2022-09-16T18:03:40.407Z,11.81
2022-09-16T18:06:44.138Z,11.74
2022-09-16T18:09:45.587Z,11.65
2022-09-16T18:12:47.008Z,11.61
2022-09-16T18:15:48.560Z,11.87
2022-09-16T18:18:52.181Z,11.93
2022-09-16T18:21:53.735Z,11.86
2022-09-16T18:24:55.130Z,12.08
2022-09-16T18:27:57.257Z,12.01
2022-09-16T18:31:07.716Z,11.95
2022-09-16T18:34:09.734Z,11.89
2022-09-16T18:37:11.167Z,11.79
2022-09-16T18:40:12.619Z,11.52
2022-09-16T18:43:14.066Z,11.17
2022-09-16T18:46:18.795Z,11.04
2022-09-16T18:49:22.262Z,11.36
2022-09-16T18:52:23.699Z,11.65
2022-09-16T18:55:25.085Z,11.47
2022-09-16T18:58:26.468Z,11.31
2022-09-16T19:01:33.785Z,11.23
2022-09-16T19:04:39.323Z,11.25
2022-09-16T19:07:40.740Z,11.24
2022-09-16T19:10:42.190Z,11.20
2022-09-16T19:13:43.742Z,11.06
2022-09-16T19:16:45.677Z,10.93
2022-09-16T19:19:47.091Z,10.90
2022-09-16T19:22:48.491Z,10.80
2022-09-16T19:25:50.344Z,10.88
2022-09-16T19:28:51.745Z,11.11
2022-09-16T19:31:53.147Z,11.36
2022-09-16T19:34:54.566Z,11.33
2022-09-16T19:37:56.014Z,11.24
2022-09-16T19:41:02.226Z,11.07
2022-09-16T19:44:06.801Z,10.87
2022-09-16T19:47:08.214Z,10.77
2022-09-16T19:50:09.721Z,10.71
2022-09-16T19:53:11.108Z,10.72
2022-09-16T19:56:15.831Z,10.68
2022-09-16T19:59:17.595Z,10.59
2022-09-16T20:02:19.019Z,10.44
2022-09-16T20:05:20.473Z,10.39
2022-09-16T20:08:21.856Z,10.20
2022-09-16T20:11:25.136Z,10.01
2022-09-16T20:14:26.553Z,9.87
2022-09-16T20:17:27.949Z,9.83
2022-09-16T20:20:29.322Z,9.96
2022-09-16T20:23:31.507Z,10.19
2022-09-16T20:26:33.828Z,10.13
2022-09-16T20:29:35.226Z,10.01
2022-09-16T20:32:36.660Z,9.94
2022-09-16T20:35:38.061Z,9.84
2022-09-16T20:38:40.457Z,9.72
2022-09-16T20:41:42.688Z,9.60
2022-09-16T20:44:47.612Z,9.50
2022-09-16T20:47:51.642Z,9.48
2022-09-16T20:50:53.050Z,9.51
2022-09-16T20:54:03.710Z,9.70
2022-09-16T20:57:07.821Z,10.11
2022-09-16T21:00:09.781Z,10.23
2022-09-16T21:03:11.609Z,10.26
2022-09-16T21:06:14.972Z,10.30
2022-09-16T21:09:16.643Z,10.27
2022-09-16T21:12:18.057Z,10.15
2022-09-16T21:15:19.555Z,10.14
2022-09-16T21:18:20.950Z,10.36
2022-09-16T21:21:23.565Z,10.62
2022-09-16T21:24:25.013Z,10.35
2022-09-16T21:27:26.397Z,10.19
2022-09-16T21:30:27.798Z,10.03
2022-09-16T21:33:35.623Z,9.96
2022-09-16T21:36:37.119Z,9.87
2022-09-16T21:39:38.541Z,9.89
2022-09-16T21:42:39.926Z,9.89
2022-09-16T21:45:44.464Z,9.91
2022-09-16T21:48:47.093Z,9.91
2022-09-16T21:51:48.891Z,9.91
2022-09-16T21:54:50.311Z,9.83
2022-09-16T21:57:51.708Z,9.78
2022-09-16T22:00:53.173Z,9.83
2022-09-16T22:03:56.777Z,9.89
2022-09-16T22:06:58.168Z,9.87
2022-09-16T22:09:59.547Z,9.88
2022-09-16T22:13:00.944Z,9.87
2022-09-16T22:16:03.427Z,9.81
2022-09-16T22:19:08.341Z,9.75
2022-09-16T22:22:09.746Z,9.69
2022-09-16T22:25:11.225Z,9.60
2022-09-16T22:28:13.373Z,9.62
2022-09-16T22:31:20.298Z,9.60
2022-09-16T22:34:21.737Z,9.55
2022-09-16T22:37:23.155Z,9.52
2022-09-16T22:40:24.613Z,9.38
2022-09-16T22:43:26.051Z,9.21
2022-09-16T22:46:33.984Z,9.05
2022-09-16T22:49:35.465Z,8.83
2022-09-16T22:52:36.844Z,8.66
2022-09-16T22:55:38.263Z,8.80
2022-09-16T22:58:40.026Z,9.00
2022-09-16T23:01:41.522Z,9.01
2022-09-16T23:04:43.078Z,8.96
2022-09-16T23:07:44.500Z,9.03
2022-09-16T23:10:45.873Z,9.20
2022-09-16T23:13:47.748Z,9.24
2022-09-16T23:16:49.218Z,9.26
2022-09-16T23:19:50.601Z,9.20
2022-09-16T23:22:51.989Z,9.16
2022-09-16T23:25:53.397Z,9.08
2022-09-16T23:28:56.641Z,9.08
2022-09-16T23:31:58.082Z,9.24
2022-09-16T23:34:59.477Z,9.42
2022-09-16T23:38:00.894Z,9.60
2022-09-16T23:41:11.256Z,9.99
2022-09-16T23:44:14.605Z,10.00
2022-09-16T23:47:15.991Z,10.13
2022-09-16T23:50:17.419Z,10.18
2022-09-16T23:53:18.815Z,10.21
2022-09-16T23:56:20.300Z,10.40
2022-09-16T23:59:21.685Z,10.32
